Time;durP1;ratioP1;P1;durP2;ratioP2;P2;SDS_P1;SDS_P2;PMS_P1;PMS_P2;Temp;Humidity;BMP_temperature;BMP_pressure;BME280_temperature;BME280_humidity;BME280_pressure;Samples;Min_cycle;Max_cycle;Signal;HPM_P1;HPM_P2
2023/01/19 00:00:36;;;;;;;15.30;8.13;;;;;;;-5.40;100.00;99522.97;5011810;28;20037;-82
2023/01/19 00:03:03;;;;;;;17.13;8.37;;;;;;;-5.57;100.00;99530.28;5000082;28;20110;-81
2023/01/19 00:05:30;;;;;;;14.17;7.70;;;;;;;-5.65;100.00;99531.78;4999207;28;20069;-82
2023/01/19 00:08:13;;;;;;;13.63;7.17;;;;;;;-5.58;100.00;99528.53;5012728;28;20041;-82
2023/01/19 00:10:51;;;;;;;15.40;9.03;;;;;;;-5.48;100.00;99529.63;4999461;28;20108;-81
2023/01/19 00:13:20;;;;;;;13.00;7.83;;;;;;;-5.49;100.00;99533.91;4995217;28;20417;-81
2023/01/19 00:15:47;;;;;;;14.20;8.47;;;;;;;-5.56;100.00;99529.44;4996999;28;20046;-81
2023/01/19 00:18:16;;;;;;;15.47;7.97;;;;;;;-5.58;100.00;99541.41;4992809;28;20136;-82
2023/01/19 00:20:46;;;;;;;15.37;8.07;;;;;;;-5.56;100.00;99538.88;5013500;28;20576;-82
2023/01/19 00:23:14;;;;;;;15.63;8.03;;;;;;;-5.58;100.00;99540.53;4981847;28;20076;-82
2023/01/19 00:25:42;;;;;;;19.13;9.07;;;;;;;-5.64;100.00;99541.25;5026488;28;20084;-82
2023/01/19 00:28:14;;;;;;;13.30;7.77;;;;;;;-5.68;100.00;99552.28;5016593;28;20050;-82
2023/01/19 00:30:41;;;;;;;15.63;7.70;;;;;;;-5.64;100.00;99548.97;5012753;28;20045;-82
2023/01/19 00:33:09;;;;;;;14.50;8.20;;;;;;;-5.72;100.00;99551.34;4983046;28;20073;-81
2023/01/19 00:35:36;;;;;;;17.57;7.50;;;;;;;-5.71;100.00;99547.09;4995374;28;20093;-82
2023/01/19 00:38:03;;;;;;;13.87;7.27;;;;;;;-5.82;100.00;99545.91;4981902;28;20066;-82
2023/01/19 00:40:29;;;;;;;13.43;7.23;;;;;;;-5.78;100.00;99547.75;5015818;28;20042;-82
2023/01/19 00:42:56;;;;;;;17.60;8.20;;;;;;;-5.81;100.00;99545.06;4995974;28;20449;-81
2023/01/19 00:45:23;;;;;;;13.07;7.30;;;;;;;-5.75;100.00;99550.38;5010487;28;20497;-82
2023/01/19 00:47:55;;;;;;;13.97;8.30;;;;;;;-5.71;100.00;99550.53;5030925;28;20029;-82
2023/01/19 00:50:24;;;;;;;13.00;7.43;;;;;;;-5.81;100.00;99545.06;5029906;28;20072;-82
2023/01/19 00:52:52;;;;;;;12.50;7.03;;;;;;;-5.93;100.00;99549.94;4997031;28;20057;-82
2023/01/19 00:55:19;;;;;;;16.77;7.20;;;;;;;-5.98;100.00;99547.22;5015152;28;20057;-81
2023/01/19 00:57:46;;;;;;;17.57;8.47;;;;;;;-5.98;100.00;99558.38;5015617;28;20139;-81
2023/01/19 01:00:15;;;;;;;15.00;7.37;;;;;;;-5.96;100.00;99553.28;5015827;28;20067;-81
2023/01/19 01:02:43;;;;;;;16.77;7.60;;;;;;;-5.97;100.00;99556.66;4999470;28;20060;-82
2023/01/19 01:05:10;;;;;;;17.13;8.13;;;;;;;-6.03;100.00;99561.66;5014875;28;20473;-81
2023/01/19 01:07:39;;;;;;;13.93;7.30;;;;;;;-5.97;100.00;99559.25;5014726;28;21319;-81
2023/01/19 01:10:15;;;;;;;13.93;7.77;;;;;;;-5.98;100.00;99567.78;5016072;28;20079;-81
2023/01/19 01:12:42;;;;;;;15.10;7.90;;;;;;;-6.05;100.00;99577.06;4998709;28;20505;-82
2023/01/19 01:15:29;;;;;;;14.70;7.10;;;;;;;-6.11;100.00;99565.72;5017305;28;20527;-81
2023/01/19 01:17:56;;;;;;;12.93;7.77;;;;;;;-6.12;100.00;99566.56;5014640;28;20134;-81
2023/01/19 01:20:26;;;;;;;15.43;8.47;;;;;;;-6.10;100.00;99567.47;5012479;28;20381;-81
2023/01/19 01:22:54;;;;;;;19.37;8.37;;;;;;;-6.07;100.00;99572.69;4999600;28;20041;-82
2023/01/19 01:25:23;;;;;;;16.77;9.20;;;;;;;-6.10;100.00;99578.63;4995886;28;20042;-81
2023/01/19 01:27:50;;;;;;;16.43;8.63;;;;;;;-6.02;100.00;99569.41;5014562;28;20095;-81
2023/01/19 01:30:17;;;;;;;16.40;8.13;;;;;;;-6.08;100.00;99574.38;5032423;28;20041;-81
2023/01/19 01:32:44;;;;;;;14.57;7.63;;;;;;;-6.11;100.00;99576.00;4999501;28;20084;-82
2023/01/19 01:35:11;;;;;;;15.87;9.03;;;;;;;-6.16;100.00;99583.56;5008749;28;20057;-80
2023/01/19 01:37:38;;;;;;;15.83;8.63;;;;;;;-6.18;100.00;99576.66;4998449;28;20046;-81
2023/01/19 01:40:06;;;;;;;19.03;8.63;;;;;;;-6.13;100.00;99569.97;5014986;28;20068;-82
2023/01/19 01:42:33;;;;;;;16.80;8.90;;;;;;;-6.19;100.00;99578.34;5011891;28;20042;-82
2023/01/19 01:45:04;;;;;;;14.97;7.93;;;;;;;-6.16;100.00;99580.13;4998967;28;20041;-81
2023/01/19 01:47:40;;;;;;;16.57;8.23;;;;;;;-6.15;100.00;99576.72;5000626;28;20152;-81
2023/01/19 01:50:15;;;;;;;18.33;9.73;;;;;;;-6.15;100.00;99590.44;5011249;28;20046;-81
2023/01/19 01:52:49;;;;;;;18.60;7.70;;;;;;;-6.12;100.00;99585.41;4985246;28;20441;-81
2023/01/19 01:55:36;;;;;;;15.70;8.47;;;;;;;-6.14;100.00;99587.03;5001047;28;20079;-81
2023/01/19 01:58:04;;;;;;;18.03;9.13;;;;;;;-6.20;100.00;99584.31;4998160;28;20091;-80
2023/01/19 02:03:16;;;;;;;13.83;7.40;;;;;;;-6.08;100.00;99582.09;5016526;28;20047;-80
2023/01/19 02:05:43;;;;;;;16.03;8.30;;;;;;;-6.14;100.00;99576.75;4990337;28;20049;-81
2023/01/19 02:13:56;;;;;;;19.03;8.97;;;;;;;-6.16;100.00;99580.13;5010231;28;20041;-81
2023/01/19 02:16:23;;;;;;;16.73;9.40;;;;;;;-6.12;100.00;99593.13;5013143;28;20092;-81
2023/01/19 02:18:50;;;;;;;16.60;8.43;;;;;;;-6.12;100.00;99587.13;5014195;28;20065;-81
2023/01/19 02:21:41;;;;;;;18.40;10.37;;;;;;;-6.11;100.00;99581.16;5012918;28;20410;-82
2023/01/19 02:24:09;;;;;;;19.70;9.23;;;;;;;-6.06;100.00;99585.56;5025552;28;20037;-81
2023/01/19 02:26:38;;;;;;;21.43;11.50;;;;;;;-6.03;100.00;99582.25;5007684;28;20049;-81
2023/01/19 02:29:07;;;;;;;17.07;8.70;;;;;;;-6.06;100.00;99589.84;5013543;28;20177;-81
2023/01/19 02:31:36;;;;;;;15.30;9.00;;;;;;;-6.04;100.00;99593.34;5013824;28;20059;-82
2023/01/19 02:34:04;;;;;;;19.93;9.80;;;;;;;-6.09;100.00;99590.63;5010776;28;20137;-82
2023/01/19 02:36:43;;;;;;;20.63;9.43;;;;;;;-6.09;100.00;99582.91;4996782;28;20140;-81
2023/01/19 02:39:10;;;;;;;16.70;9.43;;;;;;;-6.06;100.00;99585.56;5030185;28;20049;-81
2023/01/19 02:41:40;;;;;;;16.93;9.23;;;;;;;-6.05;100.00;99584.78;5011672;28;20048;-82
2023/01/19 02:44:08;;;;;;;18.80;10.03;;;;;;;-6.12;100.00;99584.53;4997548;28;20045;-81
2023/01/19 02:46:35;;;;;;;16.43;9.43;;;;;;;-6.04;100.00;99580.50;4989506;28;20396;-81
2023/01/19 02:49:02;;;;;;;17.00;9.63;;;;;;;-5.94;100.00;99576.47;4997445;28;20491;-80
2023/01/19 02:51:29;;;;;;;14.83;8.63;;;;;;;-6.02;100.00;99576.25;5010934;28;20041;-81
2023/01/19 02:54:12;;;;;;;16.10;9.87;;;;;;;-6.02;100.00;99569.41;4994960;28;20041;-81
2023/01/19 02:57:04;;;;;;;17.57;9.17;;;;;;;-6.05;100.00;99573.63;5011912;28;20045;-81
2023/01/19 02:59:42;;;;;;;15.57;8.00;;;;;;;-6.11;100.00;99581.16;5011642;28;20037;-81
2023/01/19 03:02:17;;;;;;;16.77;8.50;;;;;;;-6.18;100.00;99587.81;5010791;28;20042;-81
2023/01/19 03:04:56;;;;;;;14.37;8.47;;;;;;;-6.20;100.00;99599.75;5011321;28;20052;-81
2023/01/19 03:07:49;;;;;;;17.80;9.37;;;;;;;-6.20;100.00;99592.03;5025692;28;20046;-81
2023/01/19 03:10:29;;;;;;;18.97;9.30;;;;;;;-6.16;100.00;99590.41;5016870;28;20060;-81
2023/01/19 03:13:10;;;;;;;20.13;9.07;;;;;;;-6.11;100.00;99591.44;5022199;28;20033;-81
2023/01/19 03:15:48;;;;;;;15.33;8.33;;;;;;;-6.18;100.00;99579.22;4995083;28;20065;-80
2023/01/19 03:18:20;;;;;;;17.67;8.87;;;;;;;-6.16;100.00;99592.97;5001629;28;20072;-81
2023/01/19 03:20:49;;;;;;;18.33;8.00;;;;;;;-6.12;100.00;99585.41;5012792;28;20131;-81
2023/01/19 03:23:16;;;;;;;16.77;8.90;;;;;;;-6.23;100.00;99586.78;4997157;28;20049;-81
2023/01/19 03:25:45;;;;;;;17.20;9.03;;;;;;;-6.26;100.00;99589.28;5011207;28;20507;-80
2023/01/19 03:28:13;;;;;;;16.27;8.80;;;;;;;-6.26;100.00;99586.72;5030562;28;20048;-81
2023/01/19 03:30:45;;;;;;;17.17;8.50;;;;;;;-6.30;100.00;99585.75;4996393;28;20049;-81
2023/01/19 03:33:16;;;;;;;17.70;8.37;;;;;;;-6.35;100.00;99596.72;4997503;28;20042;-81
2023/01/19 03:35:48;;;;;;;15.83;8.90;;;;;;;-6.39;100.00;99593.19;5009486;28;20033;-80
2023/01/19 03:38:16;;;;;;;17.40;8.07;;;;;;;-6.42;100.00;99593.09;5008297;28;20041;-81
2023/01/19 03:40:43;;;;;;;16.63;8.80;;;;;;;-6.38;100.00;99594.06;5020587;28;20040;-80
2023/01/19 03:43:10;;;;;;;15.87;7.97;;;;;;;-6.38;100.00;99587.22;5027180;28;20038;-80
2023/01/19 03:45:38;;;;;;;16.33;8.53;;;;;;;-6.35;100.00;99589.88;4995451;28;20770;-80
2023/01/19 03:48:05;;;;;;;19.47;7.93;;;;;;;-6.26;100.00;99587.56;4991618;28;20053;-80
2023/01/19 03:50:31;;;;;;;13.80;6.93;;;;;;;-6.33;100.00;99587.34;5011366;28;20045;-79
2023/01/19 03:53:16;;;;;;;16.50;8.30;;;;;;;-6.40;100.00;99596.56;5007230;28;20041;-80
2023/01/19 03:55:47;;;;;;;14.07;7.73;;;;;;;-6.39;100.00;99587.16;5020597;28;20041;-80
2023/01/19 03:58:14;;;;;;;16.37;7.50;;;;;;;-6.41;100.00;99583.69;4993990;28;20041;-80
2023/01/19 04:00:40;;;;;;;12.30;6.97;;;;;;;-6.45;100.00;99587.00;5009980;28;20069;-81
2023/01/19 04:03:13;;;;;;;13.83;7.23;;;;;;;-6.40;100.00;99583.72;4994344;28;20041;-80
2023/01/19 04:05:40;;;;;;;15.33;7.83;;;;;;;-6.34;100.00;99588.19;5007615;28;20045;-80
2023/01/19 04:08:07;;;;;;;16.43;8.40;;;;;;;-6.30;100.00;99584.88;5015388;28;20117;-80
2023/01/19 04:10:34;;;;;;;13.57;7.10;;;;;;;-6.38;100.00;99582.09;5011124;28;20110;-80
2023/01/19 04:13:01;;;;;;;14.60;8.40;;;;;;;-6.43;100.00;99581.06;4994822;28;20037;-81
2023/01/19 04:15:29;;;;;;;14.80;7.47;;;;;;;-6.44;100.00;99573.31;5012129;28;20063;-80
2023/01/19 04:17:57;;;;;;;14.17;7.23;;;;;;;-6.45;100.00;99587.00;5011750;28;20046;-80
2023/01/19 04:20:25;;;;;;;14.13;7.47;;;;;;;-6.43;100.00;99591.34;5010196;28;20048;-81
2023/01/19 04:22:53;;;;;;;16.00;8.20;;;;;;;-6.35;100.00;99591.56;4986022;28;20045;-81
2023/01/19 04:25:22;;;;;;;18.17;8.37;;;;;;;-6.31;100.00;99591.69;5011843;28;20037;-80
2023/01/19 04:27:53;;;;;;;14.80;9.13;;;;;;;-6.31;100.00;99599.41;5011296;28;20041;-80
2023/01/19 04:30:21;;;;;;;15.17;8.10;;;;;;;-6.17;100.00;99596.38;5012250;28;20037;-80
2023/01/19 04:32:48;;;;;;;17.90;8.57;;;;;;;-6.17;100.00;99593.81;5027804;28;20036;-81
2023/01/19 04:35:15;;;;;;;13.03;8.10;;;;;;;-6.14;100.00;99599.03;4995047;28;20422;-81
2023/01/19 04:37:43;;;;;;;20.07;7.90;;;;;;;-6.01;100.00;99601.13;4995470;28;20044;-81
2023/01/19 04:40:11;;;;;;;16.80;8.00;;;;;;;-6.01;100.00;99598.56;5011650;28;20143;-80
2023/01/19 04:42:37;;;;;;;16.17;8.33;;;;;;;-5.89;100.00;99590.28;5010779;28;20042;-80
2023/01/19 04:45:04;;;;;;;22.03;9.97;;;;;;;-5.90;100.00;99591.97;5011355;28;20033;-81
2023/01/19 04:47:31;;;;;;;17.23;8.60;;;;;;;-5.93;100.00;99586.81;4992795;28;20419;-81
2023/01/19 04:49:57;;;;;;;17.30;9.53;;;;;;;-5.93;100.00;99589.38;5006746;28;20060;-81
2023/01/19 04:52:24;;;;;;;16.73;9.03;;;;;;;-5.88;100.00;99599.78;5007445;28;20071;-81
2023/01/19 04:54:51;;;;;;;18.57;9.13;;;;;;;-5.86;100.00;99591.25;5019677;28;20034;-81
2023/01/19 04:57:18;;;;;;;18.73;9.43;;;;;;;-5.72;100.00;99592.53;4998084;28;20056;-81
2023/01/19 04:59:45;;;;;;;19.23;9.80;;;;;;;-5.75;100.00;99596.69;5015378;28;20426;-81
2023/01/19 05:02:11;;;;;;;18.57;10.03;;;;;;;-5.71;100.00;99599.41;5014283;28;20485;-81
2023/01/19 05:04:38;;;;;;;18.10;8.83;;;;;;;-5.80;100.00;99594.00;4999120;28;20064;-81
2023/01/19 05:07:05;;;;;;;22.97;10.50;;;;;;;-5.82;100.00;99600.78;5013291;28;20072;-81
2023/01/19 05:09:31;;;;;;;19.10;10.20;;;;;;;-5.70;100.00;99597.69;5010887;23;20039;-81
2023/01/19 05:11:58;;;;;;;19.93;10.03;;;;;;;-5.70;100.00;99600.28;4977944;28;20034;-81
2023/01/19 05:14:25;;;;;;;18.23;10.40;;;;;;;-5.80;100.00;99604.28;4977283;28;20050;-80
2023/01/19 05:16:52;;;;;;;15.60;8.60;;;;;;;-5.80;100.00;99606.88;4984893;28;20035;-81
2023/01/19 05:19:19;;;;;;;18.03;9.70;;;;;;;-5.81;100.00;99596.50;4974111;28;20038;-81
2023/01/19 05:21:49;;;;;;;20.73;10.23;;;;;;;-5.81;100.00;99599.94;4958020;28;20097;-80
2023/01/19 05:24:17;;;;;;;21.13;10.17;;;;;;;-5.70;100.00;99597.69;4957719;28;20053;-83
2023/01/19 05:26:43;;;;;;;19.63;9.87;;;;;;;-5.64;100.00;99604.69;4983009;28;20038;-81
2023/01/19 05:29:10;;;;;;;23.13;10.90;;;;;;;-5.74;100.00;99601.00;4988875;28;20065;-83
2023/01/19 05:31:37;;;;;;;20.83;10.17;;;;;;;-5.69;100.00;99602.00;4961860;28;20084;-81
2023/01/19 05:34:04;;;;;;;20.17;10.33;;;;;;;-5.75;100.00;99602.69;4974970;28;20093;-81
2023/01/19 05:36:31;;;;;;;22.20;10.83;;;;;;;-5.53;100.00;99599.03;4966157;28;20046;-81
2023/01/19 05:38:58;;;;;;;19.93;10.47;;;;;;;-5.53;100.00;99608.44;4953380;28;20045;-81
2023/01/19 05:41:24;;;;;;;27.10;11.70;;;;;;;-5.61;100.00;99615.09;4974551;28;20051;-83
2023/01/19 05:43:51;;;;;;;19.93;10.30;;;;;;;-5.54;100.00;99617.00;4973702;28;20043;-81
2023/01/19 05:46:18;;;;;;;21.20;11.00;;;;;;;-5.45;100.00;99618.13;4953458;28;20340;-81
2023/01/19 05:48:44;;;;;;;27.77;12.77;;;;;;;-5.25;100.00;99618.63;4965293;28;20046;-82
2023/01/19 05:51:11;;;;;;;24.90;12.77;;;;;;;-5.26;100.00;99623.75;4969943;28;20454;-81
2023/01/19 05:53:38;;;;;;;22.80;11.67;;;;;;;-5.28;100.00;99627.97;4959314;28;20047;-82
2023/01/19 05:56:07;;;;;;;22.37;12.33;;;;;;;-5.28;100.00;99631.44;4982777;28;20491;-82
2023/01/19 05:58:36;;;;;;;21.47;11.60;;;;;;;-5.34;100.00;99626.09;4967337;28;20117;-82
2023/01/19 06:01:07;;;;;;;24.00;12.63;;;;;;;-5.30;100.00;99630.50;4956320;28;20050;-80
2023/01/19 06:03:35;;;;;;;22.43;11.40;;;;;;;-5.24;100.00;99624.63;4990064;28;20434;-81
2023/01/19 06:06:02;;;;;;;28.00;11.67;;;;;;;-5.28;100.00;99638.28;4971996;28;20042;-82
2023/01/19 06:08:29;;;;;;;28.37;13.37;;;;;;;-5.34;100.00;99636.41;4981455;28;20054;-81
2023/01/19 06:10:56;;;;;;;27.43;12.67;;;;;;;-5.33;100.00;99633.00;4979789;28;20046;-82
2023/01/19 06:13:22;;;;;;;21.20;12.67;;;;;;;-5.39;100.00;99633.69;4965398;28;20061;-82
2023/01/19 06:15:58;;;;;;;24.67;12.87;;;;;;;-5.40;100.00;99642.25;4973397;28;20396;-81
2023/01/19 06:18:25;;;;;;;25.07;12.83;;;;;;;-5.42;100.00;99641.34;4964212;28;20768;-82
2023/01/19 06:20:57;;;;;;;26.80;13.23;;;;;;;-5.43;100.00;99642.19;4969492;28;20137;-81
2023/01/19 06:23:25;;;;;;;25.57;11.63;;;;;;;-5.40;100.00;99641.38;4987783;28;20065;-81
2023/01/19 06:25:54;;;;;;;25.97;12.30;;;;;;;-5.40;100.00;99646.53;4962380;28;20050;-82
2023/01/19 06:28:21;;;;;;;23.47;11.40;;;;;;;-5.34;100.00;99654.41;4949179;28;20046;-81
2023/01/19 06:30:50;;;;;;;25.00;13.60;;;;;;;-5.28;100.00;99656.31;4990492;28;20876;-81
2023/01/19 06:33:17;;;;;;;27.00;13.80;;;;;;;-5.38;100.00;99656.06;4971622;28;20038;-82
2023/01/19 06:35:48;;;;;;;28.40;13.53;;;;;;;-5.41;100.00;99653.38;4970553;28;20035;-82
2023/01/19 06:38:17;;;;;;;23.97;13.03;;;;;;;-5.27;100.00;99651.19;4958547;28;20046;-83
2023/01/19 06:40:45;;;;;;;27.13;13.37;;;;;;;-5.33;100.00;99658.72;4975768;28;20044;-83
2023/01/19 06:43:12;;;;;;;23.57;13.50;;;;;;;-5.42;100.00;99659.34;4959499;28;20066;-83
2023/01/19 06:45:38;;;;;;;22.80;11.87;;;;;;;-5.48;100.00;99656.63;4976497;28;20039;-82
2023/01/19 06:48:05;;;;;;;28.63;12.70;;;;;;;-5.44;100.00;99655.88;4993268;28;20125;-82
2023/01/19 06:50:32;;;;;;;28.60;13.40;;;;;;;-5.40;100.00;99662.84;4992168;28;20050;-83
2023/01/19 06:52:59;;;;;;;26.93;12.43;;;;;;;-5.48;100.00;99674.63;4972237;28;20121;-83
2023/01/19 06:55:26;;;;;;;22.27;12.40;;;;;;;-5.49;100.00;99680.59;4959173;28;20035;-83
2023/01/19 06:57:57;;;;;;;25.27;13.13;;;;;;;-5.60;100.00;99679.44;4974850;28;20472;-83
2023/01/19 07:00:24;;;;;;;22.43;12.50;;;;;;;-5.63;100.00;99673.31;4977040;28;20035;-80
2023/01/19 07:02:51;;;;;;;25.77;12.93;;;;;;;-5.70;100.00;99668.03;4953506;28;20149;-82
2023/01/19 07:05:18;;;;;;;22.33;11.60;;;;;;;-5.69;100.00;99679.19;4977255;28;20085;-81
2023/01/19 07:07:50;;;;;;;27.70;13.63;;;;;;;-5.65;100.00;99675.84;4964580;28;20045;-83
2023/01/19 07:10:17;;;;;;;25.10;11.97;;;;;;;-5.67;100.00;99673.25;4952988;28;20050;-82
2023/01/19 07:12:46;;;;;;;23.13;11.70;;;;;;;-5.69;100.00;99679.19;4976975;28;20046;-82
2023/01/19 07:15:14;;;;;;;28.17;13.87;;;;;;;-5.62;100.00;99675.97;4994178;28;20089;-81
2023/01/19 07:17:42;;;;;;;22.63;12.30;;;;;;;-5.67;100.00;99680.09;4987333;28;20034;-83
2023/01/19 07:20:11;;;;;;;25.57;12.97;;;;;;;-5.61;100.00;99675.13;4995755;28;20038;-82
2023/01/19 07:22:39;;;;;;;26.03;12.57;;;;;;;-5.58;100.00;99674.34;4960661;28;20068;-82
2023/01/19 07:25:07;;;;;;;23.43;12.27;;;;;;;-5.46;100.00;99682.41;4977560;28;20057;-81
2023/01/19 07:27:33;;;;;;;24.83;13.83;;;;;;;-5.55;100.00;99685.59;4975597;28;20050;-82
2023/01/19 07:30:00;;;;;;;19.57;11.70;;;;;;;-5.64;100.00;99692.16;4969116;28;20492;-83
2023/01/19 07:32:27;;;;;;;22.80;11.00;;;;;;;-5.68;100.00;99699.81;4960902;28;20114;-83
2023/01/19 07:34:54;;;;;;;24.70;12.37;;;;;;;-5.66;100.00;99686.97;4969532;28;20096;-83
2023/01/19 07:37:21;;;;;;;22.87;11.53;;;;;;;-5.40;100.00;99696.31;4944513;28;20140;-83
2023/01/19 07:39:48;;;;;;;27.83;13.00;;;;;;;-5.56;100.00;99701.84;4974544;28;20057;-82
2023/01/19 07:42:15;;;;;;;23.60;12.57;;;;;;;-5.60;100.00;99702.59;4987655;28;20049;-81
2023/01/19 07:44:41;;;;;;;27.20;12.73;;;;;;;-5.60;100.00;99709.44;4961744;28;20038;-82
2023/01/19 07:47:11;;;;;;;26.07;13.13;;;;;;;-5.60;100.00;99712.03;4976769;28;20038;-82
2023/01/19 07:49:38;;;;;;;24.53;12.47;;;;;;;-5.62;100.00;99716.25;4953938;28;20074;-82
2023/01/19 07:52:05;;;;;;;20.30;10.90;;;;;;;-5.63;100.00;99709.34;4976762;28;20053;-82
2023/01/19 07:54:31;;;;;;;20.03;11.13;;;;;;;-5.53;100.00;99721.66;4993413;28;20088;-83
2023/01/19 07:56:59;;;;;;;23.57;12.23;;;;;;;-5.47;100.00;99720.13;4961579;28;20038;-81
2023/01/19 07:59:29;;;;;;;25.83;11.77;;;;;;;-5.52;100.00;99728.56;4961130;28;20062;-83
2023/01/19 08:01:58;;;;;;;25.03;11.97;;;;;;;-5.58;100.00;99724.09;4974235;28;20042;-81
2023/01/19 08:04:26;;;;;;;21.23;11.63;;;;;;;-5.60;100.00;99714.59;4992615;28;20038;-84
2023/01/19 08:06:53;;;;;;;24.40;11.93;;;;;;;-5.52;100.00;99723.41;4977782;28;20042;-83
2023/01/19 08:09:20;;;;;;;26.07;12.90;;;;;;;-5.54;100.00;99722.50;4974747;28;20046;-81
2023/01/19 08:11:46;;;;;;;26.07;13.37;;;;;;;-5.52;100.00;99720.84;4958856;28;20050;-82
2023/01/19 08:14:13;;;;;;;24.93;13.63;;;;;;;-5.42;100.00;99723.72;4973282;28;20050;-83
2023/01/19 08:16:39;;;;;;;23.87;12.27;;;;;;;-5.36;100.00;99724.72;4961573;28;20049;-84
2023/01/19 08:19:06;;;;;;;23.83;13.23;;;;;;;-5.35;100.00;99729.91;4977977;28;20500;-82
2023/01/19 08:21:34;;;;;;;22.63;12.00;;;;;;;-5.26;100.00;99732.72;4992965;28;20642;-82
2023/01/19 08:24:01;;;;;;;28.20;14.30;;;;;;;-5.21;100.00;99725.16;4975787;28;20034;-82
2023/01/19 08:26:33;;;;;;;23.50;12.70;;;;;;;-5.18;100.00;99726.09;4973038;28;20070;-82
2023/01/19 08:29:02;;;;;;;21.50;12.23;;;;;;;-5.18;100.00;99727.81;4980800;28;20090;-82
2023/01/19 08:31:28;;;;;;;24.77;12.87;;;;;;;-5.13;100.00;99729.69;4961006;28;20423;-82
2023/01/19 08:33:55;;;;;;;25.97;12.63;;;;;;;-5.05;100.00;99726.41;4965793;28;20042;-82
2023/01/19 08:36:23;;;;;;;23.57;12.87;;;;;;;-4.98;100.00;99724.03;4998359;28;20085;-82
2023/01/19 08:38:50;;;;;;;25.10;13.20;;;;;;;-4.91;100.00;99731.09;4979257;28;20046;-82
2023/01/19 08:41:17;;;;;;;23.10;13.17;;;;;;;-4.88;100.00;99726.03;4998451;28;20034;-82
2023/01/19 08:43:44;;;;;;;26.10;14.03;;;;;;;-4.84;100.00;99725.28;4966912;28;20038;-83
2023/01/19 08:46:11;;;;;;;33.53;14.83;;;;;;;-4.70;100.00;99725.66;4946578;28;20078;-82
2023/01/19 08:48:38;;;;;;;26.07;13.43;;;;;;;-4.54;100.00;99729.47;4965099;28;20113;-82
2023/01/19 08:51:05;;;;;;;27.67;16.03;;;;;;;-4.58;100.00;99732.81;4981425;28;20042;-82
2023/01/19 08:53:33;;;;;;;26.93;15.03;;;;;;;-4.54;100.00;99737.19;4961026;28;20058;-82
2023/01/19 08:56:01;;;;;;;26.27;14.17;;;;;;;-4.39;100.00;99734.13;4974294;28;20050;-82
2023/01/19 08:58:27;;;;;;;25.40;13.13;;;;;;;-4.43;100.00;99740.94;4963436;28;20050;-82
2023/01/19 09:00:54;;;;;;;25.13;13.73;;;;;;;-4.40;100.00;99735.84;4967741;28;20094;-82
2023/01/19 09:03:21;;;;;;;28.97;14.50;;;;;;;-4.37;100.00;99735.03;4977193;28;20049;-82
2023/01/19 09:05:48;;;;;;;27.40;14.80;;;;;;;-4.26;100.00;99733.59;4967748;28;20050;-82
2023/01/19 09:08:15;;;;;;;30.23;14.30;;;;;;;-4.09;100.00;99736.56;4954511;28;20499;-82
2023/01/19 09:10:47;;;;;;;29.03;16.03;;;;;;;-3.93;100.00;99732.66;4991003;28;20088;-81
2023/01/19 09:13:14;;;;;;;26.77;14.80;;;;;;;-3.93;100.00;99730.94;4981434;28;20499;-82
2023/01/19 09:15:42;;;;;;;26.67;14.00;;;;;;;-3.91;100.00;99737.00;4981427;28;20042;-82
2023/01/19 09:18:12;;;;;;;28.70;14.70;;;;;;;-3.90;100.00;99737.88;4998259;28;20042;-82
2023/01/19 09:20:41;;;;;;;30.10;14.83;;;;;;;-3.75;100.00;99738.22;4982151;28;20061;-82
2023/01/19 09:23:09;;;;;;;30.47;14.37;;;;;;;-3.79;100.00;99745.00;4963265;28;20038;-82
2023/01/19 09:25:37;;;;;;;25.37;14.23;;;;;;;-3.75;100.00;99745.94;4949265;28;20043;-82
2023/01/19 09:28:05;;;;;;;27.63;14.80;;;;;;;-3.64;100.00;99748.75;4998672;28;20057;-82
2023/01/19 09:30:32;;;;;;;27.30;15.13;;;;;;;-3.53;100.00;99737.84;4983692;28;20140;-82
2023/01/19 09:33:05;;;;;;;28.37;15.10;;;;;;;-3.50;100.00;99745.63;4982415;28;20065;-82
2023/01/19 09:35:33;;;;;;;25.40;14.30;;;;;;;-3.42;100.00;99748.38;4980044;28;20045;-83
2023/01/19 09:38:00;;;;;;;23.87;13.77;;;;;;;-3.43;100.00;99744.06;4962169;28;20050;-82
2023/01/19 09:40:27;;;;;;;24.53;14.47;;;;;;;-3.29;100.00;99736.59;4957051;28;20422;-82
2023/01/19 09:43:11;;;;;;;26.27;15.23;;;;;;;-3.09;100.00;99735.28;4998296;28;20114;-82
2023/01/19 09:45:47;;;;;;;29.33;16.27;;;;;;;-3.12;100.00;99738.66;4982671;28;20038;-82
2023/01/19 09:48:33;;;;;;;25.23;14.00;;;;;;;-3.02;100.00;99739.72;4981249;28;20050;-82
2023/01/19 09:51:03;;;;;;;27.67;14.37;;;;;;;-2.97;100.00;99735.50;4952300;28;20133;-83
2023/01/19 09:53:45;;;;;;;25.50;14.70;;;;;;;-2.92;100.00;99736.47;4963705;28;20042;-83
2023/01/19 09:56:14;;;;;;;29.40;15.23;;;;;;;-2.94;100.00;99743.34;4983209;28;20047;-83
2023/01/19 09:58:41;;;;;;;25.03;13.53;;;;;;;-2.81;100.00;99728.03;5000916;28;20097;-82
2023/01/19 10:01:20;;;;;;;26.80;14.77;;;;;;;-2.71;100.00;99733.38;4982461;28;20050;-81
2023/01/19 10:03:49;;;;;;;27.33;15.03;;;;;;;-2.61;100.00;99732.72;4974760;28;20472;-81
2023/01/19 10:06:16;;;;;;;30.13;15.30;;;;;;;-2.57;100.00;99733.63;4961998;28;20093;-81
2023/01/19 10:08:54;;;;;;;25.47;13.67;;;;;;;-2.58;100.00;99727.59;4960540;28;20042;-81
2023/01/19 10:11:35;;;;;;;25.83;14.40;;;;;;;-2.51;100.00;99735.47;4993345;28;20042;-81
2023/01/19 10:14:35;;;;;;;22.07;12.60;;;;;;;-2.51;100.00;99726.00;4976014;28;20061;-80
2023/01/19 10:17:19;;;;;;;22.73;14.38;;;;;;;-2.38;100.00;99727.06;4977513;28;20038;-80
2023/01/19 10:19:50;;;;;;;24.77;14.05;;;;;;;-2.33;100.00;99728.88;4978040;28;20112;-82
2023/01/19 10:22:21;;;;;;;24.30;14.17;;;;;;;-2.29;100.00;99722.03;4950390;28;20076;-80
2023/01/19 10:24:51;;;;;;;28.73;14.93;;;;;;;-2.13;100.00;99717.97;4972511;28;20478;-80
2023/01/19 10:27:23;;;;;;;27.67;14.20;;;;;;;-2.02;100.00;99717.31;4976853;28;20046;-81
2023/01/19 10:29:50;;;;;;;23.57;13.27;;;;;;;-1.98;100.00;99718.19;4993591;28;20034;-81
2023/01/19 10:32:25;;;;;;;23.17;13.20;;;;;;;-1.84;100.00;99718.41;4993258;28;20506;-82
2023/01/19 10:34:52;;;;;;;24.83;13.67;;;;;;;-1.74;100.00;99710.78;4992977;28;20035;-81
2023/01/19 10:37:33;;;;;;;23.97;12.80;;;;;;;-1.60;100.00;99710.94;4993186;28;20046;-82
2023/01/19 10:40:08;;;;;;;18.23;11.63;;;;;;;-1.57;100.00;99705.84;4968143;28;20069;-82
2023/01/19 10:42:37;;;;;;;20.57;12.17;;;;;;;-1.35;100.00;99708.66;4983451;28;20042;-81
2023/01/19 10:45:19;;;;;;;23.70;12.70;;;;;;;-1.30;100.00;99715.66;4976739;28;20042;-82
2023/01/19 10:47:47;;;;;;;20.03;12.00;;;;;;;-1.09;100.00;99704.69;4977004;28;20054;-82
2023/01/19 10:50:27;;;;;;;19.30;11.00;;;;;;;-1.05;100.00;99702.97;4953532;28;20047;-80
2023/01/19 10:52:56;;;;;;;21.80;11.00;;;;;;;-1.05;100.00;99696.06;4970476;28;20084;-80
2023/01/19 10:55:43;;;;;;;20.00;11.20;;;;;;;-0.75;100.00;99705.03;4968871;28;20051;-80
2023/01/19 10:58:28;;;;;;;24.50;11.87;;;;;;;-0.42;100.00;99694.97;4961383;28;20486;-80
2023/01/19 11:01:15;;;;;;;21.03;10.70;;;;;;;-0.35;100.00;99704.50;4987672;28;20046;-80
2023/01/19 11:03:42;;;;;;;16.90;9.23;;;;;;;-0.21;100.00;99704.63;4976016;28;20038;-82
2023/01/19 11:06:14;;;;;;;14.97;9.73;;;;;;;-0.07;100.00;99704.75;4976004;28;20537;-81
2023/01/19 11:08:42;;;;;;;14.20;9.07;;;;;;;0.01;100.00;99703.06;4991959;28;20046;-80
2023/01/19 11:11:11;;;;;;;16.60;9.47;;;;;;;0.12;100.00;99704.00;4979449;28;20145;-80
2023/01/19 11:13:38;;;;;;;21.60;9.33;;;;;;;0.38;100.00;99701.53;5084846;23;20056;-82
2023/01/19 11:16:11;;;;;;;15.30;8.67;;;;;;;0.51;100.00;99703.34;5055113;28;20037;-82
2023/01/19 11:18:39;;;;;;;16.17;9.27;;;;;;;0.73;100.00;99695.63;5039425;28;20036;-82
2023/01/19 11:21:09;;;;;;;16.63;8.60;;;;;;;0.85;100.00;99695.69;5036087;28;20041;-83
2023/01/19 11:23:43;;;;;;;13.10;8.30;;;;;;;1.03;100.00;99695.72;5048421;28;20049;-81
2023/01/19 11:26:17;;;;;;;11.90;7.40;;;;;;;1.06;100.00;99692.25;5005917;28;20792;-83
2023/01/19 11:28:46;;;;;;;12.63;7.47;;;;;;;1.10;100.00;99688.81;5028464;28;20547;-84
2023/01/19 11:31:13;;;;;;;14.63;8.53;;;;;;;1.17;100.00;99687.06;5033562;28;20040;-83
2023/01/19 11:33:42;;;;;;;14.27;8.50;;;;;;;1.31;100.00;99686.22;5025995;28;20076;-82